createdAt,value
2022-12-31T00:01:17.134Z,64.00
2022-12-31T00:03:44.286Z,64.00
2022-12-31T00:06:20.067Z,64.00
2022-12-31T00:08:47.629Z,63.90
2022-12-31T00:11:14.633Z,63.90
2022-12-31T00:13:41.659Z,64.00
2022-12-31T00:16:16.274Z,64.00
2022-12-31T00:18:43.917Z,64.00
2022-12-31T00:21:10.966Z,64.10
2022-12-31T00:23:37.733Z,64.30
2022-12-31T00:26:05.683Z,64.20
2022-12-31T00:28:33.102Z,64.10
2022-12-31T00:31:10.377Z,64.20
2022-12-31T00:33:37.411Z,64.20
2022-12-31T00:36:06.654Z,64.00
2022-12-31T00:38:33.403Z,64.30
2022-12-31T00:41:00.199Z,64.30
2022-12-31T00:43:26.944Z,64.10
2022-12-31T00:45:53.974Z,64.30
2022-12-31T00:48:20.756Z,64.30
2022-12-31T00:50:47.697Z,64.30
2022-12-31T00:53:14.424Z,64.20
2022-12-31T00:55:41.143Z,64.20
2022-12-31T00:58:07.868Z,64.20
2022-12-31T01:00:35.686Z,64.30
2022-12-31T01:03:02.576Z,64.30
2022-12-31T01:05:30.174Z,64.30
2022-12-31T01:07:56.926Z,64.50
2022-12-31T01:10:42.737Z,64.60
2022-12-31T01:13:09.476Z,65.00
2022-12-31T01:15:37.025Z,65.00
2022-12-31T01:18:04.748Z,65.10
2022-12-31T01:20:31.599Z,65.00
2022-12-31T01:22:58.473Z,65.00
2022-12-31T01:25:25.181Z,64.60
2022-12-31T01:27:51.907Z,64.30
2022-12-31T01:30:18.617Z,64.40
2022-12-31T01:32:45.373Z,64.30
2022-12-31T01:35:12.109Z,64.20
2022-12-31T01:37:39.120Z,64.00
2022-12-31T01:40:06.093Z,64.10
2022-12-31T01:42:32.826Z,64.00
2022-12-31T01:44:59.586Z,63.90
2022-12-31T01:47:46.977Z,63.90
2022-12-31T01:50:20.818Z,64.00
2022-12-31T01:52:49.991Z,64.00
2022-12-31T01:55:21.276Z,64.10
2022-12-31T01:57:49.283Z,64.10
2022-12-31T02:00:16.468Z,64.20
2022-12-31T02:02:43.310Z,64.10
2022-12-31T02:05:19.199Z,63.90
2022-12-31T02:07:47.576Z,64.00
2022-12-31T02:10:14.270Z,63.90
2022-12-31T02:12:41.160Z,63.90
2022-12-31T02:15:08.128Z,63.90
2022-12-31T02:17:34.798Z,64.00
2022-12-31T02:20:01.572Z,63.90
2022-12-31T02:22:31.073Z,63.80
2022-12-31T02:25:00.643Z,63.70
2022-12-31T02:27:46.224Z,63.80
2022-12-31T02:30:15.085Z,63.80
2022-12-31T02:32:50.712Z,63.90
2022-12-31T02:35:23.370Z,64.00
2022-12-31T02:37:53.303Z,64.00
2022-12-31T02:40:21.170Z,63.90
2022-12-31T02:42:54.899Z,63.80
2022-12-31T02:45:26.532Z,63.80
2022-12-31T02:48:02.352Z,63.80
2022-12-31T02:50:32.083Z,63.80
2022-12-31T02:53:14.143Z,63.90
2022-12-31T02:55:49.336Z,63.90
2022-12-31T02:58:46.315Z,63.80
2022-12-31T03:01:34.462Z,63.70
2022-12-31T03:04:24.721Z,63.70
2022-12-31T03:06:52.292Z,63.60
2022-12-31T03:09:19.087Z,63.70
2022-12-31T03:12:04.328Z,63.70
2022-12-31T03:14:31.048Z,63.70
2022-12-31T03:16:57.864Z,63.70
2022-12-31T03:19:43.105Z,63.60
2022-12-31T03:22:30.033Z,63.50
2022-12-31T03:25:17.106Z,63.40
2022-12-31T03:27:44.355Z,63.30
2022-12-31T03:30:11.861Z,63.30
2022-12-31T03:32:38.701Z,63.50
2022-12-31T03:35:06.344Z,63.30
2022-12-31T03:37:33.108Z,63.10
2022-12-31T03:40:00.181Z,63.10
2022-12-31T03:42:26.885Z,63.10
2022-12-31T03:44:53.673Z,63.10
2022-12-31T03:47:20.360Z,63.20
2022-12-31T03:49:47.073Z,63.30
2022-12-31T03:52:13.819Z,63.20
2022-12-31T03:54:40.543Z,63.20
2022-12-31T03:57:07.351Z,63.40
2022-12-31T03:59:34.316Z,63.30
2022-12-31T04:02:01.131Z,63.20
2022-12-31T04:04:27.872Z,63.30
2022-12-31T04:06:54.614Z,63.20
2022-12-31T04:09:21.433Z,63.10
2022-12-31T04:11:48.270Z,63.10
2022-12-31T04:14:16.518Z,63.10
2022-12-31T04:16:44.048Z,63.10
2022-12-31T04:19:11.226Z,63.40
2022-12-31T04:21:37.971Z,63.50
2022-12-31T04:24:05.214Z,63.40
2022-12-31T04:26:32.025Z,63.50
2022-12-31T04:28:58.804Z,63.50
2022-12-31T04:31:25.589Z,63.60
2022-12-31T04:33:52.349Z,63.60
2022-12-31T04:36:19.083Z,63.30
2022-12-31T04:38:45.841Z,63.50
2022-12-31T04:41:18.676Z,63.40
2022-12-31T04:43:46.999Z,64.10
2022-12-31T04:46:14.341Z,63.60
2022-12-31T04:48:41.104Z,63.30
2022-12-31T04:51:07.894Z,63.30
2022-12-31T04:53:34.764Z,63.20
2022-12-31T04:56:01.492Z,63.30
2022-12-31T04:58:28.332Z,63.20
2022-12-31T05:00:55.464Z,63.20
2022-12-31T05:03:23.083Z,63.30
2022-12-31T05:05:50.269Z,63.10
2022-12-31T05:08:17.816Z,63.20
2022-12-31T05:10:46.008Z,63.30
2022-12-31T05:13:13.196Z,63.20
2022-12-31T05:15:40.574Z,63.20
2022-12-31T05:18:07.758Z,63.20
2022-12-31T05:20:34.598Z,63.10
2022-12-31T05:23:01.506Z,63.10
2022-12-31T05:25:28.289Z,63.30
2022-12-31T05:27:55.069Z,63.40
2022-12-31T05:30:21.857Z,63.00
2022-12-31T05:32:48.634Z,63.00
2022-12-31T05:35:15.787Z,63.10
2022-12-31T05:37:42.569Z,63.10
2022-12-31T05:40:09.704Z,62.90
2022-12-31T05:42:36.434Z,63.00
2022-12-31T05:45:03.273Z,63.00
2022-12-31T05:47:30.137Z,62.90
2022-12-31T05:49:56.843Z,63.00
2022-12-31T05:52:23.564Z,63.00
2022-12-31T05:54:50.261Z,63.10
2022-12-31T05:57:17.007Z,63.10
2022-12-31T05:59:43.692Z,63.20
2022-12-31T06:02:10.405Z,63.10
2022-12-31T06:04:37.079Z,63.00
2022-12-31T06:07:03.812Z,63.00
2022-12-31T06:09:30.517Z,62.80
2022-12-31T06:11:57.241Z,62.80
2022-12-31T06:14:24.025Z,63.00
2022-12-31T06:16:50.763Z,62.90
2022-12-31T06:19:17.571Z,63.50
2022-12-31T06:21:44.268Z,62.90
2022-12-31T06:24:11.073Z,62.70
2022-12-31T06:26:37.877Z,62.60
2022-12-31T06:29:04.839Z,62.70
2022-12-31T06:31:31.655Z,62.60
2022-12-31T06:33:58.384Z,62.60
2022-12-31T06:36:25.128Z,62.50
2022-12-31T06:38:51.852Z,62.60
2022-12-31T06:41:18.770Z,62.50
2022-12-31T06:43:45.722Z,62.50
2022-12-31T06:46:14.193Z,62.50
2022-12-31T06:48:43.201Z,62.60
2022-12-31T06:51:16.785Z,62.80
2022-12-31T06:53:44.939Z,62.70
2022-12-31T06:56:16.080Z,62.80
2022-12-31T06:58:42.965Z,62.80
2022-12-31T07:01:24.952Z,62.60
2022-12-31T07:03:57.500Z,62.60
2022-12-31T07:06:38.993Z,62.70
2022-12-31T07:09:08.467Z,62.80
2022-12-31T07:11:39.199Z,62.70
2022-12-31T07:14:44.511Z,62.80
2022-12-31T07:17:22.113Z,62.70
2022-12-31T07:19:52.476Z,62.80
2022-12-31T07:22:24.151Z,62.70
2022-12-31T07:24:50.991Z,62.70
2022-12-31T07:27:38.000Z,62.80
2022-12-31T07:30:34.132Z,62.70
2022-12-31T07:33:15.845Z,62.80
2022-12-31T07:35:48.408Z,62.60
2022-12-31T07:38:22.561Z,62.60
2022-12-31T07:40:57.589Z,62.50
2022-12-31T07:43:57.231Z,62.40
2022-12-31T07:46:42.404Z,62.50
2022-12-31T07:49:12.759Z,62.60
2022-12-31T07:51:40.079Z,62.70
2022-12-31T07:54:13.381Z,62.70
2022-12-31T07:56:41.224Z,62.80
2022-12-31T07:59:26.741Z,62.80
2022-12-31T08:01:57.728Z,62.80
2022-12-31T08:04:29.318Z,62.80
2022-12-31T08:06:59.018Z,62.90
2022-12-31T08:09:44.579Z,62.70
2022-12-31T08:12:11.402Z,62.70
2022-12-31T08:14:43.127Z,62.90
2022-12-31T08:17:12.139Z,63.10
2022-12-31T08:19:38.959Z,63.00
2022-12-31T08:22:08.625Z,63.10
2022-12-31T08:24:41.354Z,63.10
2022-12-31T08:27:27.099Z,63.20
2022-12-31T08:29:53.850Z,63.10
2022-12-31T08:32:32.337Z,63.10
2022-12-31T08:34:59.430Z,63.10
2022-12-31T08:37:36.861Z,63.20
2022-12-31T08:40:15.884Z,63.00
2022-12-31T08:43:01.608Z,63.10
2022-12-31T08:45:31.452Z,63.10
2022-12-31T08:48:01.300Z,63.20
2022-12-31T08:50:28.635Z,63.00
2022-12-31T08:52:55.567Z,63.10
2022-12-31T08:55:22.527Z,63.20
2022-12-31T08:58:04.629Z,63.00
2022-12-31T09:00:31.956Z,63.10
2022-12-31T09:03:11.229Z,63.40
2022-12-31T09:05:41.041Z,63.20
2022-12-31T09:08:07.739Z,63.50
2022-12-31T09:10:46.278Z,63.40
2022-12-31T09:13:18.677Z,63.10
2022-12-31T09:15:58.906Z,63.40
2022-12-31T09:18:29.739Z,63.00
2022-12-31T09:20:59.885Z,63.10
2022-12-31T09:23:26.766Z,63.00
2022-12-31T09:25:53.462Z,62.80
2022-12-31T09:28:40.501Z,62.40
2022-12-31T09:31:27.325Z,62.00
2022-12-31T09:34:12.658Z,61.40
2022-12-31T09:36:46.467Z,60.60
2022-12-31T09:39:13.169Z,60.80
2022-12-31T09:41:54.862Z,61.20
2022-12-31T09:44:40.418Z,61.30
2022-12-31T09:47:25.983Z,61.50
2022-12-31T09:50:08.694Z,61.60
2022-12-31T09:52:47.235Z,61.60
2022-12-31T09:55:19.746Z,61.50
2022-12-31T09:57:52.558Z,62.30
2022-12-31T10:00:24.203Z,61.70
2022-12-31T10:02:50.981Z,61.60
2022-12-31T10:05:27.011Z,61.70
2022-12-31T10:07:59.695Z,61.70
2022-12-31T10:10:38.721Z,61.70
2022-12-31T10:13:14.397Z,61.60
2022-12-31T10:15:59.236Z,61.60
2022-12-31T10:18:44.509Z,61.60
2022-12-31T10:21:19.536Z,61.70
2022-12-31T10:23:46.225Z,61.50
2022-12-31T10:26:21.275Z,61.50
2022-12-31T10:28:56.253Z,61.60
2022-12-31T10:31:31.971Z,61.60
2022-12-31T10:34:13.923Z,61.50
2022-12-31T10:36:51.696Z,61.50
2022-12-31T10:39:44.898Z,61.40
2022-12-31T10:42:17.844Z,61.40
2022-12-31T10:45:02.998Z,61.40
2022-12-31T10:47:41.876Z,61.30
2022-12-31T10:50:23.106Z,61.40
2022-12-31T10:53:08.419Z,61.30
2022-12-31T10:55:54.371Z,61.30
2022-12-31T10:58:39.816Z,61.30
2022-12-31T11:01:15.811Z,61.40
2022-12-31T11:03:42.645Z,61.60
2022-12-31T11:06:09.368Z,61.50
2022-12-31T11:08:39.390Z,61.60
2022-12-31T11:11:31.676Z,61.60
2022-12-31T11:13:58.399Z,61.60
2022-12-31T11:16:27.946Z,61.60
2022-12-31T11:19:04.181Z,61.70
2022-12-31T11:21:41.484Z,61.80
2022-12-31T11:24:11.693Z,61.80
2022-12-31T11:26:49.522Z,61.80
2022-12-31T11:29:22.500Z,61.70
2022-12-31T11:31:52.597Z,61.70
2022-12-31T11:34:37.672Z,61.70
2022-12-31T11:37:07.357Z,61.70
2022-12-31T11:39:40.271Z,61.70
2022-12-31T11:42:16.247Z,61.70
2022-12-31T11:44:55.370Z,61.70
2022-12-31T11:47:44.743Z,61.60
2022-12-31T11:50:30.498Z,61.70
2022-12-31T11:53:11.984Z,61.80
2022-12-31T11:55:44.898Z,61.70
2022-12-31T11:58:13.234Z,61.70
2022-12-31T12:00:40.999Z,61.70
2022-12-31T12:03:08.000Z,61.70
2022-12-31T12:05:35.243Z,61.70
2022-12-31T12:08:02.118Z,61.70
2022-12-31T12:10:48.854Z,61.60
2022-12-31T12:13:18.561Z,61.70
2022-12-31T12:15:47.106Z,61.70
2022-12-31T12:18:19.376Z,61.70
2022-12-31T12:20:46.366Z,62.20
2022-12-31T12:23:17.727Z,62.30
2022-12-31T12:25:44.959Z,62.30
2022-12-31T12:28:19.105Z,62.20
2022-12-31T12:30:47.068Z,62.10
2022-12-31T12:33:18.297Z,62.10
2022-12-31T12:35:45.110Z,62.10
2022-12-31T12:38:18.907Z,62.00
2022-12-31T12:40:54.564Z,62.10
2022-12-31T12:43:24.814Z,62.00
2022-12-31T12:45:52.582Z,62.20
2022-12-31T12:48:21.913Z,62.50
2022-12-31T12:50:49.157Z,62.80
2022-12-31T12:53:24.928Z,62.90
2022-12-31T12:55:54.855Z,63.00
2022-12-31T12:58:38.454Z,63.10
2022-12-31T13:01:20.713Z,63.00
2022-12-31T13:04:23.464Z,63.00
2022-12-31T13:06:48.072Z,63.00
2022-12-31T13:09:33.386Z,63.00
2022-12-31T13:12:18.985Z,63.00
2022-12-31T13:14:45.656Z,63.30
2022-12-31T13:17:26.920Z,63.50
2022-12-31T13:19:57.837Z,63.60
2022-12-31T13:22:28.424Z,63.70
2022-12-31T13:24:55.223Z,63.70
2022-12-31T13:27:25.471Z,63.80
2022-12-31T13:29:53.550Z,63.80
2022-12-31T13:32:23.483Z,63.70
2022-12-31T13:34:54.363Z,63.60
2022-12-31T13:37:23.841Z,63.70
2022-12-31T13:39:54.389Z,63.70
2022-12-31T13:42:23.357Z,63.80
2022-12-31T13:44:53.810Z,63.90
2022-12-31T13:47:23.321Z,63.90
2022-12-31T13:49:56.483Z,63.90
2022-12-31T13:52:35.348Z,63.80
2022-12-31T13:55:04.807Z,63.80
2022-12-31T13:57:50.112Z,63.80
2022-12-31T14:00:24.841Z,63.80
2022-12-31T14:02:54.350Z,63.70
2022-12-31T14:05:56.498Z,63.90
2022-12-31T14:08:23.277Z,63.80
2022-12-31T14:11:19.234Z,63.70
2022-12-31T14:13:45.913Z,63.80
2022-12-31T14:16:18.722Z,63.80
2022-12-31T14:18:48.298Z,63.70
2022-12-31T14:21:21.979Z,63.80
2022-12-31T14:23:54.154Z,63.80
2022-12-31T14:26:30.207Z,63.70
2022-12-31T14:29:02.592Z,63.70
2022-12-31T14:31:37.899Z,63.70
2022-12-31T14:34:16.564Z,63.70
2022-12-31T14:36:50.138Z,63.70
2022-12-31T14:39:27.701Z,63.70
2022-12-31T14:42:08.451Z,63.70
2022-12-31T14:44:43.662Z,63.70
2022-12-31T14:47:16.862Z,63.70
2022-12-31T14:49:43.555Z,63.70
2022-12-31T14:52:16.496Z,63.70
2022-12-31T14:54:43.255Z,63.70
2022-12-31T14:57:23.998Z,63.70
2022-12-31T15:00:01.072Z,63.70
2022-12-31T15:02:29.417Z,63.70
2022-12-31T15:05:05.814Z,63.70
2022-12-31T15:07:48.400Z,63.70
2022-12-31T15:10:15.154Z,63.70
2022-12-31T15:12:56.628Z,63.60
2022-12-31T15:15:33.580Z,63.60
2022-12-31T15:18:12.455Z,63.70
2022-12-31T15:20:39.159Z,63.70
2022-12-31T15:23:13.184Z,63.60
2022-12-31T15:25:41.647Z,63.60
2022-12-31T15:28:26.168Z,63.60
2022-12-31T15:30:54.855Z,63.70
2022-12-31T15:33:33.877Z,63.60
2022-12-31T15:36:12.218Z,63.70
2022-12-31T15:38:40.190Z,63.70
2022-12-31T15:41:33.154Z,63.90
2022-12-31T15:44:02.051Z,64.00
2022-12-31T15:46:31.845Z,64.00
2022-12-31T15:49:04.192Z,64.10
2022-12-31T15:51:35.756Z,64.30
2022-12-31T15:54:03.158Z,65.10
2022-12-31T15:56:39.381Z,65.10
2022-12-31T15:59:08.043Z,65.50
2022-12-31T16:01:36.170Z,65.50
2022-12-31T16:04:07.935Z,65.40
2022-12-31T16:06:37.890Z,65.00
2022-12-31T16:09:07.919Z,65.70
2022-12-31T16:11:41.129Z,65.60
2022-12-31T16:14:07.872Z,65.70
2022-12-31T16:16:34.546Z,65.70
2022-12-31T16:19:01.339Z,65.80
2022-12-31T16:21:38.276Z,65.50
2022-12-31T16:24:06.226Z,65.40
2022-12-31T16:26:37.057Z,65.40
2022-12-31T16:29:04.599Z,65.30
2022-12-31T16:31:31.407Z,65.20
2022-12-31T16:34:05.410Z,65.20
2022-12-31T16:36:32.209Z,65.10
2022-12-31T16:39:21.093Z,65.00
2022-12-31T16:41:47.974Z,65.20
2022-12-31T16:44:28.180Z,65.30
2022-12-31T16:47:02.695Z,65.90
2022-12-31T16:49:30.509Z,65.30
2022-12-31T16:51:59.346Z,65.30
2022-12-31T16:54:29.370Z,65.30
2022-12-31T16:56:57.465Z,65.30
2022-12-31T16:59:34.952Z,65.20
2022-12-31T17:02:04.423Z,65.30
2022-12-31T17:04:31.317Z,65.10
2022-12-31T17:07:16.749Z,65.10
2022-12-31T17:09:43.473Z,65.00
2022-12-31T17:12:15.661Z,65.10
2022-12-31T17:14:51.499Z,65.10
2022-12-31T17:17:25.604Z,65.10
2022-12-31T17:19:57.039Z,65.00
2022-12-31T17:22:35.806Z,65.00
2022-12-31T17:25:20.866Z,65.00
2022-12-31T17:27:53.087Z,65.00
2022-12-31T17:30:35.299Z,65.10
2022-12-31T17:33:22.369Z,65.00
2022-12-31T17:35:54.392Z,65.00
2022-12-31T17:38:21.156Z,65.00
2022-12-31T17:41:08.178Z,64.90
2022-12-31T17:43:38.664Z,64.90
2022-12-31T17:46:16.163Z,65.00
2022-12-31T17:48:45.146Z,64.80
2022-12-31T17:51:11.935Z,64.80
2022-12-31T17:53:38.699Z,64.70
2022-12-31T17:56:07.098Z,64.80
2022-12-31T17:58:44.899Z,64.80
2022-12-31T18:01:13.936Z,64.80
2022-12-31T18:03:40.784Z,64.70
2022-12-31T18:06:13.038Z,64.70
2022-12-31T18:08:43.232Z,64.70
2022-12-31T18:11:17.698Z,64.70
2022-12-31T18:13:44.736Z,64.70
2022-12-31T18:16:11.683Z,64.70
2022-12-31T18:18:40.119Z,64.70
2022-12-31T18:21:08.201Z,64.70
2022-12-31T18:23:40.548Z,64.70
2022-12-31T18:26:09.596Z,64.60
2022-12-31T18:28:36.427Z,64.60
2022-12-31T18:31:03.181Z,64.60
2022-12-31T18:33:30.126Z,64.60
2022-12-31T18:36:12.179Z,64.70
2022-12-31T18:38:39.673Z,64.60
2022-12-31T18:41:07.101Z,64.70
2022-12-31T18:43:33.831Z,64.70
2022-12-31T18:46:00.665Z,64.60
2022-12-31T18:48:27.389Z,64.60
2022-12-31T18:50:54.117Z,64.60
2022-12-31T18:53:22.163Z,64.60
2022-12-31T18:55:48.962Z,64.60
2022-12-31T18:58:15.999Z,64.60
2022-12-31T19:00:43.132Z,64.60
2022-12-31T19:03:13.880Z,64.50
2022-12-31T19:05:40.603Z,64.50
2022-12-31T19:08:07.364Z,64.60
2022-12-31T19:10:34.119Z,64.50
2022-12-31T19:13:00.970Z,64.50
2022-12-31T19:15:27.873Z,64.50
2022-12-31T19:17:54.659Z,64.50
2022-12-31T19:20:21.472Z,64.40
2022-12-31T19:22:48.221Z,64.60
2022-12-31T19:25:17.273Z,64.60
2022-12-31T19:27:44.045Z,64.60
2022-12-31T19:30:15.440Z,64.50
2022-12-31T19:32:42.252Z,64.50
2022-12-31T19:35:11.213Z,64.50
2022-12-31T19:37:37.922Z,64.50
2022-12-31T19:40:05.124Z,64.50
2022-12-31T19:42:31.886Z,64.50
2022-12-31T19:44:58.654Z,64.50
2022-12-31T19:47:25.391Z,64.40
2022-12-31T19:49:52.132Z,64.50
2022-12-31T19:52:18.847Z,64.50
2022-12-31T19:54:45.576Z,64.50
2022-12-31T19:57:12.386Z,64.50
2022-12-31T19:59:39.159Z,64.50
2022-12-31T20:02:06.153Z,64.50
2022-12-31T20:04:32.971Z,64.60
2022-12-31T20:06:59.697Z,64.50
2022-12-31T20:09:26.445Z,64.50
2022-12-31T20:11:53.144Z,64.60
2022-12-31T20:14:19.880Z,64.80
2022-12-31T20:16:46.645Z,64.80
2022-12-31T20:19:13.451Z,64.80
2022-12-31T20:21:41.929Z,65.00
2022-12-31T20:24:08.993Z,64.80
2022-12-31T20:26:35.794Z,64.70
2022-12-31T20:29:02.609Z,64.60
2022-12-31T20:31:29.358Z,64.60
2022-12-31T20:33:56.219Z,64.70
2022-12-31T20:36:23.223Z,64.80
2022-12-31T20:38:50.070Z,64.60
2022-12-31T20:41:18.014Z,64.50
2022-12-31T20:43:45.478Z,64.60
2022-12-31T20:46:19.013Z,64.50
2022-12-31T20:48:46.559Z,64.60
2022-12-31T20:51:13.891Z,64.50
2022-12-31T20:53:45.071Z,64.60
2022-12-31T20:56:11.830Z,64.50
2022-12-31T20:58:38.529Z,64.60
2022-12-31T21:01:06.290Z,64.60
2022-12-31T21:04:04.250Z,64.50
2022-12-31T21:06:22.257Z,64.50
2022-12-31T21:08:49.047Z,64.60
2022-12-31T21:11:34.771Z,64.60
2022-12-31T21:14:02.152Z,64.50
2022-12-31T21:16:28.895Z,64.60
2022-12-31T21:18:55.685Z,64.60
2022-12-31T21:21:22.532Z,64.60
2022-12-31T21:23:49.516Z,64.60
2022-12-31T21:26:16.664Z,64.60
2022-12-31T21:28:43.504Z,64.60
2022-12-31T21:31:11.173Z,64.50
2022-12-31T21:33:37.964Z,64.50
2022-12-31T21:36:05.233Z,64.50
2022-12-31T21:38:32.039Z,64.50
2022-12-31T21:41:02.589Z,64.60
2022-12-31T21:43:29.341Z,64.60
2022-12-31T21:46:03.379Z,64.60
2022-12-31T21:48:30.335Z,64.50
2022-12-31T21:51:08.027Z,64.60
2022-12-31T21:53:37.151Z,64.60
2022-12-31T21:56:16.153Z,64.60
2022-12-31T21:58:46.110Z,64.60
2022-12-31T22:01:34.551Z,64.50
2022-12-31T22:04:01.339Z,64.60
2022-12-31T22:06:28.148Z,64.60
2022-12-31T22:08:55.676Z,64.60
2022-12-31T22:11:23.720Z,64.60
2022-12-31T22:13:50.982Z,64.60
2022-12-31T22:16:19.134Z,64.60
2022-12-31T22:18:46.412Z,64.60
2022-12-31T22:21:18.878Z,64.60
2022-12-31T22:23:51.872Z,64.60
2022-12-31T22:26:20.479Z,64.70
2022-12-31T22:28:47.632Z,64.60
2022-12-31T22:31:15.589Z,64.60
2022-12-31T22:33:42.616Z,64.70
2022-12-31T22:36:13.808Z,64.90
2022-12-31T22:38:40.552Z,64.80
2022-12-31T22:41:07.666Z,64.80
2022-12-31T22:43:35.920Z,64.90
2022-12-31T22:46:10.009Z,64.90
2022-12-31T22:48:37.477Z,64.80
2022-12-31T22:51:04.502Z,64.70
2022-12-31T22:53:31.222Z,64.70
2022-12-31T22:55:58.185Z,64.60
2022-12-31T22:58:25.430Z,64.70
2022-12-31T23:00:52.255Z,64.60
2022-12-31T23:03:19.117Z,64.60
2022-12-31T23:05:49.001Z,64.60
2022-12-31T23:08:22.287Z,64.60
2022-12-31T23:10:59.908Z,64.60
2022-12-31T23:13:50.694Z,64.60
2022-12-31T23:16:37.017Z,64.60
2022-12-31T23:19:22.489Z,64.60
2022-12-31T23:22:07.855Z,64.60
2022-12-31T23:24:34.694Z,64.50
2022-12-31T23:27:01.562Z,64.50
2022-12-31T23:29:28.258Z,64.50
2022-12-31T23:31:55.089Z,64.50
2022-12-31T23:34:21.936Z,64.50
2022-12-31T23:36:48.830Z,64.50
2022-12-31T23:39:15.640Z,64.50
2022-12-31T23:41:42.409Z,64.50
2022-12-31T23:44:10.115Z,64.40
2022-12-31T23:46:36.813Z,64.50
2022-12-31T23:49:03.563Z,64.50
2022-12-31T23:51:30.320Z,64.50
2022-12-31T23:53:57.068Z,64.50
2022-12-31T23:56:24.310Z,64.60
2022-12-31T23:58:56.631Z,64.40
